sensor_id;sensor_type;location;lat;lon;timestamp;temperature;humidity
20066;DHT22;10193;48.884;9.182;2024-01-11T00:01:34;-1.60;57.60
20066;DHT22;10193;48.884;9.182;2024-01-11T00:04:01;-1.60;57.60
20066;DHT22;10193;48.884;9.182;2024-01-11T00:06:29;-1.70;57.70
20066;DHT22;10193;48.884;9.182;2024-01-11T00:08:55;-1.60;57.90
20066;DHT22;10193;48.884;9.182;2024-01-11T00:11:22;-1.60;58.00
20066;DHT22;10193;48.884;9.182;2024-01-11T00:13:48;-1.70;58.00
20066;DHT22;10193;48.884;9.182;2024-01-11T00:16:15;-1.60;58.00
20066;DHT22;10193;48.884;9.182;2024-01-11T00:18:42;-1.70;57.90
20066;DHT22;10193;48.884;9.182;2024-01-11T00:21:10;-1.60;58.00
20066;DHT22;10193;48.884;9.182;2024-01-11T00:23:38;-1.70;58.00
20066;DHT22;10193;48.884;9.182;2024-01-11T00:26:05;-1.70;58.00
20066;DHT22;10193;48.884;9.182;2024-01-11T00:28:31;-1.60;58.10
20066;DHT22;10193;48.884;9.182;2024-01-11T00:30:58;-1.70;58.00
20066;DHT22;10193;48.884;9.182;2024-01-11T00:33:24;-1.70;58.00
20066;DHT22;10193;48.884;9.182;2024-01-11T00:35:51;-1.70;57.90
20066;DHT22;10193;48.884;9.182;2024-01-11T00:38:18;-1.70;57.90
20066;DHT22;10193;48.884;9.182;2024-01-11T00:40:46;-1.70;57.80
20066;DHT22;10193;48.884;9.182;2024-01-11T00:43:12;-1.80;57.80
20066;DHT22;10193;48.884;9.182;2024-01-11T00:45:39;-1.80;57.90
20066;DHT22;10193;48.884;9.182;2024-01-11T00:48:06;-1.80;58.00
20066;DHT22;10193;48.884;9.182;2024-01-11T00:50:33;-1.80;58.10
20066;DHT22;10193;48.884;9.182;2024-01-11T00:52:59;-1.80;58.10
20066;DHT22;10193;48.884;9.182;2024-01-11T00:55:26;-1.80;58.10
20066;DHT22;10193;48.884;9.182;2024-01-11T00:57:54;-1.90;57.90
20066;DHT22;10193;48.884;9.182;2024-01-11T01:00:21;-1.80;58.00
20066;DHT22;10193;48.884;9.182;2024-01-11T01:02:47;-1.90;58.00
20066;DHT22;10193;48.884;9.182;2024-01-11T01:05:14;-1.90;58.00
20066;DHT22;10193;48.884;9.182;2024-01-11T01:07:41;-1.90;58.00
20066;DHT22;10193;48.884;9.182;2024-01-11T01:10:08;-1.90;58.10
20066;DHT22;10193;48.884;9.182;2024-01-11T01:12:35;-2.00;58.00
20066;DHT22;10193;48.884;9.182;2024-01-11T01:15:03;-1.90;58.30
20066;DHT22;10193;48.884;9.182;2024-01-11T01:17:30;-1.90;58.30
20066;DHT22;10193;48.884;9.182;2024-01-11T01:19:57;-1.90;58.40
20066;DHT22;10193;48.884;9.182;2024-01-11T01:22:24;-1.90;58.40
20066;DHT22;10193;48.884;9.182;2024-01-11T01:24:50;-1.90;58.50
20066;DHT22;10193;48.884;9.182;2024-01-11T01:27:17;-1.90;58.50
20066;DHT22;10193;48.884;9.182;2024-01-11T01:29:43;-1.90;58.50
20066;DHT22;10193;48.884;9.182;2024-01-11T01:32:11;-1.90;58.50
20066;DHT22;10193;48.884;9.182;2024-01-11T01:34:38;-1.90;58.50
20066;DHT22;10193;48.884;9.182;2024-01-11T01:37:05;-1.90;58.40
20066;DHT22;10193;48.884;9.182;2024-01-11T01:39:31;-1.90;58.30
20066;DHT22;10193;48.884;9.182;2024-01-11T01:41:58;-1.90;58.90
20066;DHT22;10193;48.884;9.182;2024-01-11T01:44:25;-1.90;58.30
20066;DHT22;10193;48.884;9.182;2024-01-11T01:46:52;-1.90;58.30
20066;DHT22;10193;48.884;9.182;2024-01-11T01:49:20;-2.00;58.30
20066;DHT22;10193;48.884;9.182;2024-01-11T01:51:49;-2.00;58.20
20066;DHT22;10193;48.884;9.182;2024-01-11T01:54:17;-2.00;58.30
20066;DHT22;10193;48.884;9.182;2024-01-11T01:56:45;-2.00;58.30
20066;DHT22;10193;48.884;9.182;2024-01-11T01:59:12;-2.00;58.30
20066;DHT22;10193;48.884;9.182;2024-01-11T02:01:39;-2.00;58.50
20066;DHT22;10193;48.884;9.182;2024-01-11T02:04:06;-2.00;58.50
20066;DHT22;10193;48.884;9.182;2024-01-11T02:06:35;-2.00;58.50
20066;DHT22;10193;48.884;9.182;2024-01-11T02:09:02;-2.10;58.50
20066;DHT22;10193;48.884;9.182;2024-01-11T02:11:30;-2.00;58.60
20066;DHT22;10193;48.884;9.182;2024-01-11T02:13:57;-2.10;58.50
20066;DHT22;10193;48.884;9.182;2024-01-11T02:16:24;-2.00;58.60
20066;DHT22;10193;48.884;9.182;2024-01-11T02:18:50;-2.10;58.50
20066;DHT22;10193;48.884;9.182;2024-01-11T02:21:17;-2.10;58.50
20066;DHT22;10193;48.884;9.182;2024-01-11T02:23:53;-2.00;58.60
20066;DHT22;10193;48.884;9.182;2024-01-11T02:26:20;-2.10;58.60
20066;DHT22;10193;48.884;9.182;2024-01-11T02:28:48;-2.10;58.60
20066;DHT22;10193;48.884;9.182;2024-01-11T02:31:14;-2.10;58.60
20066;DHT22;10193;48.884;9.182;2024-01-11T02:33:42;-2.10;58.60
20066;DHT22;10193;48.884;9.182;2024-01-11T02:36:09;-2.10;58.60
20066;DHT22;10193;48.884;9.182;2024-01-11T02:38:35;-2.10;58.50
20066;DHT22;10193;48.884;9.182;2024-01-11T02:41:05;-2.10;58.40
20066;DHT22;10193;48.884;9.182;2024-01-11T02:43:31;-2.10;58.40
20066;DHT22;10193;48.884;9.182;2024-01-11T02:45:58;-2.20;59.00
20066;DHT22;10193;48.884;9.182;2024-01-11T02:48:27;-2.20;58.40
20066;DHT22;10193;48.884;9.182;2024-01-11T02:50:55;-2.20;58.60
20066;DHT22;10193;48.884;9.182;2024-01-11T02:53:21;-2.20;58.60
20066;DHT22;10193;48.884;9.182;2024-01-11T02:55:48;-2.20;58.60
20066;DHT22;10193;48.884;9.182;2024-01-11T02:58:16;-2.30;58.60
20066;DHT22;10193;48.884;9.182;2024-01-11T03:00:43;-2.30;58.50
20066;DHT22;10193;48.884;9.182;2024-01-11T03:03:10;-2.30;58.50
20066;DHT22;10193;48.884;9.182;2024-01-11T03:05:36;-2.30;58.40
20066;DHT22;10193;48.884;9.182;2024-01-11T03:08:03;-2.30;58.40
20066;DHT22;10193;48.884;9.182;2024-01-11T03:10:30;-2.30;58.40
20066;DHT22;10193;48.884;9.182;2024-01-11T03:12:57;-2.40;58.40
20066;DHT22;10193;48.884;9.182;2024-01-11T03:15:25;-2.40;58.40
20066;DHT22;10193;48.884;9.182;2024-01-11T03:17:52;-2.40;58.50
20066;DHT22;10193;48.884;9.182;2024-01-11T03:20:19;-2.40;58.50
20066;DHT22;10193;48.884;9.182;2024-01-11T03:22:50;-2.40;58.50
20066;DHT22;10193;48.884;9.182;2024-01-11T03:25:17;-2.50;58.60
20066;DHT22;10193;48.884;9.182;2024-01-11T03:27:43;-2.50;58.60
20066;DHT22;10193;48.884;9.182;2024-01-11T03:30:11;-2.50;58.60
20066;DHT22;10193;48.884;9.182;2024-01-11T03:32:39;-2.50;58.70
20066;DHT22;10193;48.884;9.182;2024-01-11T03:35:06;-2.50;58.60
20066;DHT22;10193;48.884;9.182;2024-01-11T03:37:33;-2.50;58.70
20066;DHT22;10193;48.884;9.182;2024-01-11T03:40:00;-2.50;58.80
20066;DHT22;10193;48.884;9.182;2024-01-11T03:42:27;-2.50;58.90
20066;DHT22;10193;48.884;9.182;2024-01-11T03:44:54;-2.50;58.80
20066;DHT22;10193;48.884;9.182;2024-01-11T03:47:21;-2.60;58.80
20066;DHT22;10193;48.884;9.182;2024-01-11T03:49:49;-2.50;58.90
20066;DHT22;10193;48.884;9.182;2024-01-11T03:52:15;-2.50;58.90
20066;DHT22;10193;48.884;9.182;2024-01-11T03:54:42;-2.50;58.90
20066;DHT22;10193;48.884;9.182;2024-01-11T03:57:09;-2.50;58.90
20066;DHT22;10193;48.884;9.182;2024-01-11T03:59:35;-2.50;59.50
20066;DHT22;10193;48.884;9.182;2024-01-11T04:02:02;-2.50;58.90
20066;DHT22;10193;48.884;9.182;2024-01-11T04:04:29;-2.60;58.90
20066;DHT22;10193;48.884;9.182;2024-01-11T04:06:57;-2.60;58.90
20066;DHT22;10193;48.884;9.182;2024-01-11T04:09:23;-2.40;59.10
20066;DHT22;10193;48.884;9.182;2024-01-11T04:11:50;-2.60;59.00
20066;DHT22;10193;48.884;9.182;2024-01-11T04:14:17;-2.60;59.00
20066;DHT22;10193;48.884;9.182;2024-01-11T04:16:43;-2.60;59.00
20066;DHT22;10193;48.884;9.182;2024-01-11T04:19:10;-2.60;59.00
20066;DHT22;10193;48.884;9.182;2024-01-11T04:21:37;-2.60;59.50
20066;DHT22;10193;48.884;9.182;2024-01-11T04:24:07;-2.60;59.00
20066;DHT22;10193;48.884;9.182;2024-01-11T04:26:34;-2.60;59.00
20066;DHT22;10193;48.884;9.182;2024-01-11T04:29:00;-2.60;59.00
20066;DHT22;10193;48.884;9.182;2024-01-11T04:31:27;-2.60;59.00
20066;DHT22;10193;48.884;9.182;2024-01-11T04:33:54;-2.60;59.10
20066;DHT22;10193;48.884;9.182;2024-01-11T04:36:20;-2.60;59.10
20066;DHT22;10193;48.884;9.182;2024-01-11T04:38:47;-2.60;59.20
20066;DHT22;10193;48.884;9.182;2024-01-11T04:41:15;-2.50;59.10
20066;DHT22;10193;48.884;9.182;2024-01-11T04:43:43;-2.60;59.10
20066;DHT22;10193;48.884;9.182;2024-01-11T04:46:13;-2.60;59.10
20066;DHT22;10193;48.884;9.182;2024-01-11T04:48:40;-2.60;59.20
20066;DHT22;10193;48.884;9.182;2024-01-11T04:51:07;-2.60;59.20
20066;DHT22;10193;48.884;9.182;2024-01-11T04:53:36;-2.50;59.20
20066;DHT22;10193;48.884;9.182;2024-01-11T04:56:03;-2.60;59.20
20066;DHT22;10193;48.884;9.182;2024-01-11T04:58:31;-2.60;59.20
20066;DHT22;10193;48.884;9.182;2024-01-11T05:00:58;-2.70;59.10
20066;DHT22;10193;48.884;9.182;2024-01-11T05:03:25;-2.60;59.20
20066;DHT22;10193;48.884;9.182;2024-01-11T05:05:51;-2.60;59.20
20066;DHT22;10193;48.884;9.182;2024-01-11T05:08:18;-2.70;59.20
20066;DHT22;10193;48.884;9.182;2024-01-11T05:10:45;-2.50;59.30
20066;DHT22;10193;48.884;9.182;2024-01-11T05:13:11;-2.70;59.20
20066;DHT22;10193;48.884;9.182;2024-01-11T05:15:39;-2.60;59.90
20066;DHT22;10193;48.884;9.182;2024-01-11T05:18:06;-2.60;59.40
20066;DHT22;10193;48.884;9.182;2024-01-11T05:20:33;-2.70;59.30
20066;DHT22;10193;48.884;9.182;2024-01-11T05:22:59;-2.60;59.40
20066;DHT22;10193;48.884;9.182;2024-01-11T05:25:26;-2.60;59.40
20066;DHT22;10193;48.884;9.182;2024-01-11T05:27:53;-2.60;59.40
20066;DHT22;10193;48.884;9.182;2024-01-11T05:30:20;-2.60;59.90
20066;DHT22;10193;48.884;9.182;2024-01-11T05:32:48;-2.60;59.30
20066;DHT22;10193;48.884;9.182;2024-01-11T05:35:14;-2.60;59.30
20066;DHT22;10193;48.884;9.182;2024-01-11T05:37:41;-2.70;59.20
20066;DHT22;10193;48.884;9.182;2024-01-11T05:40:08;-2.70;59.20
20066;DHT22;10193;48.884;9.182;2024-01-11T05:42:35;-2.70;59.20
20066;DHT22;10193;48.884;9.182;2024-01-11T05:45:03;-2.70;59.30
20066;DHT22;10193;48.884;9.182;2024-01-11T05:47:30;-2.70;59.30
20066;DHT22;10193;48.884;9.182;2024-01-11T05:49:58;-2.70;59.20
20066;DHT22;10193;48.884;9.182;2024-01-11T05:52:25;-2.70;59.20
20066;DHT22;10193;48.884;9.182;2024-01-11T05:54:51;-2.70;59.30
20066;DHT22;10193;48.884;9.182;2024-01-11T05:57:18;-2.80;59.20
20066;DHT22;10193;48.884;9.182;2024-01-11T05:59:45;-2.70;59.30
20066;DHT22;10193;48.884;9.182;2024-01-11T06:02:12;-2.80;59.30
20066;DHT22;10193;48.884;9.182;2024-01-11T06:04:39;-2.70;59.40
20066;DHT22;10193;48.884;9.182;2024-01-11T06:07:07;-2.80;59.30
20066;DHT22;10193;48.884;9.182;2024-01-11T06:09:34;-2.80;59.40
20066;DHT22;10193;48.884;9.182;2024-01-11T06:12:00;-2.80;59.40
20066;DHT22;10193;48.884;9.182;2024-01-11T06:14:27;-2.80;59.40
20066;DHT22;10193;48.884;9.182;2024-01-11T06:16:54;-2.80;59.40
20066;DHT22;10193;48.884;9.182;2024-01-11T06:19:20;-2.80;59.40
20066;DHT22;10193;48.884;9.182;2024-01-11T06:21:47;-2.90;59.40
20066;DHT22;10193;48.884;9.182;2024-01-11T06:24:15;-2.90;59.40
20066;DHT22;10193;48.884;9.182;2024-01-11T06:26:42;-2.90;59.40
20066;DHT22;10193;48.884;9.182;2024-01-11T06:29:08;-2.90;59.40
20066;DHT22;10193;48.884;9.182;2024-01-11T06:31:35;-2.90;59.30
20066;DHT22;10193;48.884;9.182;2024-01-11T06:34:02;-2.90;60.00
20066;DHT22;10193;48.884;9.182;2024-01-11T06:36:29;-2.90;59.40
20066;DHT22;10193;48.884;9.182;2024-01-11T06:38:56;-2.90;59.50
20066;DHT22;10193;48.884;9.182;2024-01-11T06:41:24;-2.90;59.40
20066;DHT22;10193;48.884;9.182;2024-01-11T06:43:50;-3.00;59.30
20066;DHT22;10193;48.884;9.182;2024-01-11T06:46:19;-3.00;59.40
20066;DHT22;10193;48.884;9.182;2024-01-11T06:48:46;-3.00;59.30
20066;DHT22;10193;48.884;9.182;2024-01-11T06:51:14;-3.00;59.10
20066;DHT22;10193;48.884;9.182;2024-01-11T06:53:41;-3.00;59.20
20066;DHT22;10193;48.884;9.182;2024-01-11T06:56:14;-3.10;59.20
20066;DHT22;10193;48.884;9.182;2024-01-11T06:58:42;-3.10;59.30
20066;DHT22;10193;48.884;9.182;2024-01-11T07:01:09;-3.10;59.40
20066;DHT22;10193;48.884;9.182;2024-01-11T07:03:36;-3.10;59.50
20066;DHT22;10193;48.884;9.182;2024-01-11T07:06:03;-3.10;59.50
20066;DHT22;10193;48.884;9.182;2024-01-11T07:08:30;-3.10;59.60
20066;DHT22;10193;48.884;9.182;2024-01-11T07:10:58;-3.10;59.60
20066;DHT22;10193;48.884;9.182;2024-01-11T07:13:24;-3.10;59.50
20066;DHT22;10193;48.884;9.182;2024-01-11T07:15:52;-3.10;59.50
20066;DHT22;10193;48.884;9.182;2024-01-11T07:18:20;-3.10;59.50
20066;DHT22;10193;48.884;9.182;2024-01-11T07:20:47;-3.10;59.50
20066;DHT22;10193;48.884;9.182;2024-01-11T07:23:14;-3.10;59.50
20066;DHT22;10193;48.884;9.182;2024-01-11T07:25:41;-3.20;59.50
20066;DHT22;10193;48.884;9.182;2024-01-11T07:28:07;-3.10;59.60
20066;DHT22;10193;48.884;9.182;2024-01-11T07:30:34;-3.10;59.70
20066;DHT22;10193;48.884;9.182;2024-01-11T07:33:02;-3.10;59.80
20066;DHT22;10193;48.884;9.182;2024-01-11T07:35:30;-3.10;59.90
20066;DHT22;10193;48.884;9.182;2024-01-11T07:37:56;-3.00;59.90
20066;DHT22;10193;48.884;9.182;2024-01-11T07:40:23;-3.10;59.80
20066;DHT22;10193;48.884;9.182;2024-01-11T07:42:50;-3.10;59.90
20066;DHT22;10193;48.884;9.182;2024-01-11T07:45:16;-2.90;60.00
20066;DHT22;10193;48.884;9.182;2024-01-11T07:47:44;-3.00;59.90
20066;DHT22;10193;48.884;9.182;2024-01-11T07:50:12;-3.00;59.90
20066;DHT22;10193;48.884;9.182;2024-01-11T07:52:39;-2.90;60.00
20066;DHT22;10193;48.884;9.182;2024-01-11T07:55:08;-2.90;60.00
20066;DHT22;10193;48.884;9.182;2024-01-11T07:57:36;-3.00;59.70
20066;DHT22;10193;48.884;9.182;2024-01-11T08:00:04;-2.90;59.90
20066;DHT22;10193;48.884;9.182;2024-01-11T08:02:32;-2.90;59.90
20066;DHT22;10193;48.884;9.182;2024-01-11T08:04:58;-2.90;60.00
20066;DHT22;10193;48.884;9.182;2024-01-11T08:07:27;-2.90;60.00
20066;DHT22;10193;48.884;9.182;2024-01-11T08:09:54;-2.90;60.00
20066;DHT22;10193;48.884;9.182;2024-01-11T08:12:20;-2.80;60.00
20066;DHT22;10193;48.884;9.182;2024-01-11T08:14:47;-2.80;60.10
20066;DHT22;10193;48.884;9.182;2024-01-11T08:17:14;-2.70;60.30
20066;DHT22;10193;48.884;9.182;2024-01-11T08:19:42;-2.80;60.20
20066;DHT22;10193;48.884;9.182;2024-01-11T08:22:09;-2.80;60.10
20066;DHT22;10193;48.884;9.182;2024-01-11T08:24:38;-2.70;60.30
20066;DHT22;10193;48.884;9.182;2024-01-11T08:27:04;-2.70;60.30
20066;DHT22;10193;48.884;9.182;2024-01-11T08:29:32;-2.70;60.30
20066;DHT22;10193;48.884;9.182;2024-01-11T08:31:59;-2.70;60.10
20066;DHT22;10193;48.884;9.182;2024-01-11T08:34:26;-2.60;60.30
20066;DHT22;10193;48.884;9.182;2024-01-11T08:36:53;-2.60;60.30
20066;DHT22;10193;48.884;9.182;2024-01-11T08:39:20;-2.60;60.40
20066;DHT22;10193;48.884;9.182;2024-01-11T08:41:49;-2.60;60.50
20066;DHT22;10193;48.884;9.182;2024-01-11T08:44:17;-2.50;60.50
20066;DHT22;10193;48.884;9.182;2024-01-11T08:46:44;-2.50;60.70
20066;DHT22;10193;48.884;9.182;2024-01-11T08:49:11;-2.50;60.80
20066;DHT22;10193;48.884;9.182;2024-01-11T08:51:38;-2.40;60.90
20066;DHT22;10193;48.884;9.182;2024-01-11T08:54:05;-2.30;61.00
20066;DHT22;10193;48.884;9.182;2024-01-11T08:56:34;-2.30;61.00
20066;DHT22;10193;48.884;9.182;2024-01-11T08:59:02;-2.30;60.90
20066;DHT22;10193;48.884;9.182;2024-01-11T09:01:29;-2.20;61.20
20066;DHT22;10193;48.884;9.182;2024-01-11T09:03:56;-2.20;61.20
20066;DHT22;10193;48.884;9.182;2024-01-11T09:06:23;-2.10;61.10
20066;DHT22;10193;48.884;9.182;2024-01-11T09:08:50;-2.00;61.20
20066;DHT22;10193;48.884;9.182;2024-01-11T09:11:17;-2.00;61.20
20066;DHT22;10193;48.884;9.182;2024-01-11T09:13:44;-1.90;61.30
20066;DHT22;10193;48.884;9.182;2024-01-11T09:16:15;-1.90;61.30
20066;DHT22;10193;48.884;9.182;2024-01-11T09:18:42;-1.80;61.40
20066;DHT22;10193;48.884;9.182;2024-01-11T09:21:09;-1.80;61.30
20066;DHT22;10193;48.884;9.182;2024-01-11T09:23:36;-1.70;61.40
20066;DHT22;10193;48.884;9.182;2024-01-11T09:26:02;-1.70;61.40
20066;DHT22;10193;48.884;9.182;2024-01-11T09:28:30;-1.60;61.30
20066;DHT22;10193;48.884;9.182;2024-01-11T09:30:57;-1.60;61.20
20066;DHT22;10193;48.884;9.182;2024-01-11T09:33:26;-1.60;61.10
20066;DHT22;10193;48.884;9.182;2024-01-11T09:35:53;-1.50;61.00
20066;DHT22;10193;48.884;9.182;2024-01-11T09:38:20;-1.50;60.90
20066;DHT22;10193;48.884;9.182;2024-01-11T09:40:48;-1.50;60.90
20066;DHT22;10193;48.884;9.182;2024-01-11T09:43:19;-1.40;61.10
20066;DHT22;10193;48.884;9.182;2024-01-11T09:45:48;-1.40;61.00
20066;DHT22;10193;48.884;9.182;2024-01-11T09:48:16;-1.40;61.00
20066;DHT22;10193;48.884;9.182;2024-01-11T09:50:47;-1.40;61.00
20066;DHT22;10193;48.884;9.182;2024-01-11T09:53:16;-1.30;61.20
20066;DHT22;10193;48.884;9.182;2024-01-11T09:55:43;-1.30;61.20
20066;DHT22;10193;48.884;9.182;2024-01-11T09:58:10;-1.20;61.30
20066;DHT22;10193;48.884;9.182;2024-01-11T10:00:37;-1.20;61.30
20066;DHT22;10193;48.884;9.182;2024-01-11T10:03:06;-1.10;61.30
20066;DHT22;10193;48.884;9.182;2024-01-11T10:05:33;-1.10;61.30
20066;DHT22;10193;48.884;9.182;2024-01-11T10:08:02;-1.00;61.50
20066;DHT22;10193;48.884;9.182;2024-01-11T10:10:29;-1.00;61.50
20066;DHT22;10193;48.884;9.182;2024-01-11T10:12:57;-0.90;61.50
20066;DHT22;10193;48.884;9.182;2024-01-11T10:15:24;-0.90;61.50
20066;DHT22;10193;48.884;9.182;2024-01-11T10:17:51;-0.80;61.60
20066;DHT22;10193;48.884;9.182;2024-01-11T10:20:18;-0.80;61.60
20066;DHT22;10193;48.884;9.182;2024-01-11T10:22:49;-0.70;61.70
20066;DHT22;10193;48.884;9.182;2024-01-11T10:25:17;-0.70;61.70
20066;DHT22;10193;48.884;9.182;2024-01-11T10:27:45;-0.60;61.60
20066;DHT22;10193;48.884;9.182;2024-01-11T10:30:13;-0.60;61.60
20066;DHT22;10193;48.884;9.182;2024-01-11T10:32:41;-0.50;61.60
20066;DHT22;10193;48.884;9.182;2024-01-11T10:35:08;-0.50;61.50
20066;DHT22;10193;48.884;9.182;2024-01-11T10:37:36;-0.40;61.50
20066;DHT22;10193;48.884;9.182;2024-01-11T10:40:05;-0.40;61.50
20066;DHT22;10193;48.884;9.182;2024-01-11T10:42:40;-0.30;61.50
20066;DHT22;10193;48.884;9.182;2024-01-11T10:45:11;-0.30;61.30
20066;DHT22;10193;48.884;9.182;2024-01-11T10:47:46;-0.30;61.30
20066;DHT22;10193;48.884;9.182;2024-01-11T10:50:15;-0.20;61.30
20066;DHT22;10193;48.884;9.182;2024-01-11T10:53:02;-0.20;61.30
20066;DHT22;10193;48.884;9.182;2024-01-11T10:55:31;-0.10;61.40
20066;DHT22;10193;48.884;9.182;2024-01-11T10:57:59;-0.10;61.30
20066;DHT22;10193;48.884;9.182;2024-01-11T11:00:27;-0.10;61.20
20066;DHT22;10193;48.884;9.182;2024-01-11T11:02:54;0.00;61.30
20066;DHT22;10193;48.884;9.182;2024-01-11T11:05:21;0.00;61.30
20066;DHT22;10193;48.884;9.182;2024-01-11T11:07:49;0.10;61.40
20066;DHT22;10193;48.884;9.182;2024-01-11T11:10:17;0.10;61.40
20066;DHT22;10193;48.884;9.182;2024-01-11T11:12:45;0.20;62.20
20066;DHT22;10193;48.884;9.182;2024-01-11T11:15:13;0.20;61.40
20066;DHT22;10193;48.884;9.182;2024-01-11T11:17:41;0.20;61.40
20066;DHT22;10193;48.884;9.182;2024-01-11T11:20:10;0.30;61.50
20066;DHT22;10193;48.884;9.182;2024-01-11T11:22:37;0.30;61.40
20066;DHT22;10193;48.884;9.182;2024-01-11T11:25:08;0.40;61.40
20066;DHT22;10193;48.884;9.182;2024-01-11T11:27:35;0.40;61.40
20066;DHT22;10193;48.884;9.182;2024-01-11T11:30:02;0.40;61.50
20066;DHT22;10193;48.884;9.182;2024-01-11T11:32:37;0.50;61.50
20066;DHT22;10193;48.884;9.182;2024-01-11T11:35:05;0.60;61.50
20066;DHT22;10193;48.884;9.182;2024-01-11T11:37:34;0.60;61.50
20066;DHT22;10193;48.884;9.182;2024-01-11T11:40:02;0.70;61.40
20066;DHT22;10193;48.884;9.182;2024-01-11T11:42:30;0.70;61.30
20066;DHT22;10193;48.884;9.182;2024-01-11T11:44:57;0.70;61.20
20066;DHT22;10193;48.884;9.182;2024-01-11T11:47:24;0.70;61.20
20066;DHT22;10193;48.884;9.182;2024-01-11T11:50:04;0.80;61.20
20066;DHT22;10193;48.884;9.182;2024-01-11T11:52:32;0.80;61.00
20066;DHT22;10193;48.884;9.182;2024-01-11T11:54:59;0.90;61.20
20066;DHT22;10193;48.884;9.182;2024-01-11T11:57:27;0.90;61.10
20066;DHT22;10193;48.884;9.182;2024-01-11T11:59:55;0.90;61.00
20066;DHT22;10193;48.884;9.182;2024-01-11T12:02:23;1.00;61.20
20066;DHT22;10193;48.884;9.182;2024-01-11T12:04:51;1.00;61.10
20066;DHT22;10193;48.884;9.182;2024-01-11T12:07:19;1.00;61.00
20066;DHT22;10193;48.884;9.182;2024-01-11T12:09:46;1.00;61.00
20066;DHT22;10193;48.884;9.182;2024-01-11T12:12:13;1.10;61.00
20066;DHT22;10193;48.884;9.182;2024-01-11T12:14:41;1.10;61.00
20066;DHT22;10193;48.884;9.182;2024-01-11T12:17:08;1.10;60.90
20066;DHT22;10193;48.884;9.182;2024-01-11T12:19:35;1.10;60.90
20066;DHT22;10193;48.884;9.182;2024-01-11T12:22:02;1.20;61.00
20066;DHT22;10193;48.884;9.182;2024-01-11T12:24:30;1.30;61.00
20066;DHT22;10193;48.884;9.182;2024-01-11T12:26:59;1.30;61.00
20066;DHT22;10193;48.884;9.182;2024-01-11T12:29:28;1.30;60.90
20066;DHT22;10193;48.884;9.182;2024-01-11T12:31:56;1.30;60.90
20066;DHT22;10193;48.884;9.182;2024-01-11T12:34:23;1.40;60.90
20066;DHT22;10193;48.884;9.182;2024-01-11T12:36:50;1.40;60.80
20066;DHT22;10193;48.884;9.182;2024-01-11T12:39:19;1.40;60.70
20066;DHT22;10193;48.884;9.182;2024-01-11T12:41:49;1.50;60.80
20066;DHT22;10193;48.884;9.182;2024-01-11T12:44:17;1.50;60.80
20066;DHT22;10193;48.884;9.182;2024-01-11T12:46:44;1.50;60.80
20066;DHT22;10193;48.884;9.182;2024-01-11T12:49:13;1.60;60.80
20066;DHT22;10193;48.884;9.182;2024-01-11T12:51:40;1.60;60.70
20066;DHT22;10193;48.884;9.182;2024-01-11T12:54:11;1.60;60.60
20066;DHT22;10193;48.884;9.182;2024-01-11T12:56:40;1.60;60.60
20066;DHT22;10193;48.884;9.182;2024-01-11T12:59:09;1.60;60.60
20066;DHT22;10193;48.884;9.182;2024-01-11T13:01:37;1.70;60.70
20066;DHT22;10193;48.884;9.182;2024-01-11T13:04:03;1.70;60.80
20066;DHT22;10193;48.884;9.182;2024-01-11T13:06:31;1.70;60.70
20066;DHT22;10193;48.884;9.182;2024-01-11T13:08:57;1.70;61.60
20066;DHT22;10193;48.884;9.182;2024-01-11T13:11:24;1.70;60.70
20066;DHT22;10193;48.884;9.182;2024-01-11T13:13:51;1.80;60.70
20066;DHT22;10193;48.884;9.182;2024-01-11T13:16:19;1.80;60.60
20066;DHT22;10193;48.884;9.182;2024-01-11T13:18:47;1.80;60.60
20066;DHT22;10193;48.884;9.182;2024-01-11T13:21:14;1.80;60.50
20066;DHT22;10193;48.884;9.182;2024-01-11T13:23:40;1.80;60.50
20066;DHT22;10193;48.884;9.182;2024-01-11T13:26:07;1.80;60.40
20066;DHT22;10193;48.884;9.182;2024-01-11T13:28:34;1.90;60.60
20066;DHT22;10193;48.884;9.182;2024-01-11T13:31:01;1.90;60.50
20066;DHT22;10193;48.884;9.182;2024-01-11T13:33:30;1.90;60.60
20066;DHT22;10193;48.884;9.182;2024-01-11T13:35:56;1.90;60.40
20066;DHT22;10193;48.884;9.182;2024-01-11T13:38:23;1.90;60.30
20066;DHT22;10193;48.884;9.182;2024-01-11T13:40:50;1.90;60.30
20066;DHT22;10193;48.884;9.182;2024-01-11T13:43:16;1.90;60.20
20066;DHT22;10193;48.884;9.182;2024-01-11T13:45:44;1.90;60.20
20066;DHT22;10193;48.884;9.182;2024-01-11T13:48:11;1.90;60.10
20066;DHT22;10193;48.884;9.182;2024-01-11T13:50:39;1.90;60.10
20066;DHT22;10193;48.884;9.182;2024-01-11T13:53:05;1.90;60.10
20066;DHT22;10193;48.884;9.182;2024-01-11T13:55:32;1.90;60.10
20066;DHT22;10193;48.884;9.182;2024-01-11T13:58:03;1.90;60.10
20066;DHT22;10193;48.884;9.182;2024-01-11T14:00:30;1.90;60.00
20066;DHT22;10193;48.884;9.182;2024-01-11T14:02:57;2.00;60.20
20066;DHT22;10193;48.884;9.182;2024-01-11T14:05:23;2.00;60.10
20066;DHT22;10193;48.884;9.182;2024-01-11T14:07:51;1.90;60.00
20066;DHT22;10193;48.884;9.182;2024-01-11T14:10:24;1.90;60.00
20066;DHT22;10193;48.884;9.182;2024-01-11T14:12:51;1.90;60.00
20066;DHT22;10193;48.884;9.182;2024-01-11T14:15:18;2.00;60.10
20066;DHT22;10193;48.884;9.182;2024-01-11T14:17:44;1.90;60.00
20066;DHT22;10193;48.884;9.182;2024-01-11T14:20:12;1.90;60.00
20066;DHT22;10193;48.884;9.182;2024-01-11T14:22:40;1.90;60.00
20066;DHT22;10193;48.884;9.182;2024-01-11T14:25:09;2.00;60.10
20066;DHT22;10193;48.884;9.182;2024-01-11T14:27:37;2.00;60.00
20066;DHT22;10193;48.884;9.182;2024-01-11T14:30:05;2.00;60.80
20066;DHT22;10193;48.884;9.182;2024-01-11T14:32:32;2.00;60.00
20066;DHT22;10193;48.884;9.182;2024-01-11T14:35:00;2.00;60.00
20066;DHT22;10193;48.884;9.182;2024-01-11T14:37:30;2.00;59.90
20066;DHT22;10193;48.884;9.182;2024-01-11T14:39:57;2.00;59.90
20066;DHT22;10193;48.884;9.182;2024-01-11T14:42:26;2.00;59.80
20066;DHT22;10193;48.884;9.182;2024-01-11T14:44:53;2.00;59.80
20066;DHT22;10193;48.884;9.182;2024-01-11T14:47:20;1.90;59.70
20066;DHT22;10193;48.884;9.182;2024-01-11T14:49:46;1.90;59.80
20066;DHT22;10193;48.884;9.182;2024-01-11T14:52:13;1.90;59.70
20066;DHT22;10193;48.884;9.182;2024-01-11T14:54:40;1.90;59.70
20066;DHT22;10193;48.884;9.182;2024-01-11T14:57:06;1.90;59.70
20066;DHT22;10193;48.884;9.182;2024-01-11T14:59:35;1.90;59.70
20066;DHT22;10193;48.884;9.182;2024-01-11T15:02:01;1.90;59.70
20066;DHT22;10193;48.884;9.182;2024-01-11T15:04:29;1.90;59.70
20066;DHT22;10193;48.884;9.182;2024-01-11T15:06:56;1.90;59.70
20066;DHT22;10193;48.884;9.182;2024-01-11T15:09:23;1.90;59.70
20066;DHT22;10193;48.884;9.182;2024-01-11T15:11:51;1.90;59.70
20066;DHT22;10193;48.884;9.182;2024-01-11T15:14:18;1.90;59.60
20066;DHT22;10193;48.884;9.182;2024-01-11T15:16:47;1.90;59.60
20066;DHT22;10193;48.884;9.182;2024-01-11T15:19:15;1.90;59.60
20066;DHT22;10193;48.884;9.182;2024-01-11T15:21:42;1.80;59.50
20066;DHT22;10193;48.884;9.182;2024-01-11T15:24:09;1.80;59.40
20066;DHT22;10193;48.884;9.182;2024-01-11T15:26:35;1.80;59.40
20066;DHT22;10193;48.884;9.182;2024-01-11T15:29:02;1.80;59.40
20066;DHT22;10193;48.884;9.182;2024-01-11T15:31:29;1.80;59.40
20066;DHT22;10193;48.884;9.182;2024-01-11T15:33:57;1.70;59.30
20066;DHT22;10193;48.884;9.182;2024-01-11T15:36:24;1.70;59.30